createdAt,value
2023-05-18T00:01:58.614Z,51.50
2023-05-18T00:04:00.504Z,51.50
2023-05-18T00:06:02.383Z,51.60
2023-05-18T00:08:04.266Z,51.60
2023-05-18T00:10:06.333Z,51.50
2023-05-18T00:12:08.464Z,51.50
2023-05-18T00:14:10.216Z,51.60
2023-05-18T00:16:12.138Z,51.60
2023-05-18T00:18:14.010Z,51.60
2023-05-18T00:20:16.103Z,51.60
2023-05-18T00:22:17.867Z,51.60
2023-05-18T00:24:19.733Z,51.60
2023-05-18T00:26:21.517Z,51.60
2023-05-18T00:28:26.003Z,51.60
2023-05-18T00:30:27.803Z,51.60
2023-05-18T00:32:31.688Z,51.60
2023-05-18T00:34:33.484Z,51.70
2023-05-18T00:36:36.200Z,51.70
2023-05-18T00:38:37.978Z,51.70
2023-05-18T00:40:39.841Z,51.70
2023-05-18T00:42:41.655Z,51.70
2023-05-18T00:44:44.269Z,51.70
2023-05-18T00:46:46.138Z,51.70
2023-05-18T00:48:48.783Z,51.70
2023-05-18T00:50:50.822Z,51.60
2023-05-18T00:52:52.687Z,51.60
2023-05-18T00:54:54.495Z,51.60
2023-05-18T00:56:56.837Z,51.60
2023-05-18T00:58:58.660Z,51.60
2023-05-18T01:01:00.585Z,51.60
2023-05-18T01:03:02.492Z,51.70
2023-05-18T01:05:04.565Z,51.70
2023-05-18T01:07:07.145Z,51.70
2023-05-18T01:09:10.396Z,51.60
2023-05-18T01:11:18.994Z,51.60
2023-05-18T01:13:23.442Z,51.60
2023-05-18T01:15:32.043Z,51.60
2023-05-18T01:17:45.999Z,51.50
2023-05-18T01:19:50.571Z,51.50
2023-05-18T01:22:24.854Z,51.50
2023-05-18T01:24:26.662Z,51.50
2023-05-18T01:26:33.633Z,51.50
2023-05-18T01:28:36.381Z,51.50
2023-05-18T01:30:40.217Z,51.50
2023-05-18T01:32:45.411Z,51.50
2023-05-18T01:34:47.514Z,51.50
2023-05-18T01:36:49.375Z,51.60
2023-05-18T01:38:51.377Z,51.50
2023-05-18T01:41:01.997Z,51.50
2023-05-18T01:43:10.091Z,51.50
2023-05-18T01:45:15.469Z,51.50
2023-05-18T01:47:17.657Z,51.50
2023-05-18T01:49:39.738Z,51.60
2023-05-18T01:51:45.092Z,52.00
2023-05-18T01:53:52.900Z,51.50
2023-05-18T01:55:55.000Z,51.50
2023-05-18T01:57:57.350Z,51.50
2023-05-18T01:59:59.702Z,51.50
2023-05-18T02:02:01.793Z,52.20
2023-05-18T02:04:08.050Z,51.50
2023-05-18T02:06:09.984Z,51.50
2023-05-18T02:08:11.795Z,51.60
2023-05-18T02:10:13.998Z,51.60
2023-05-18T02:12:16.247Z,51.60
2023-05-18T02:14:18.105Z,51.50
2023-05-18T02:16:19.948Z,52.20
2023-05-18T02:18:21.853Z,51.60
2023-05-18T02:20:23.680Z,51.50
2023-05-18T02:22:26.826Z,51.50
2023-05-18T02:24:28.565Z,51.50
2023-05-18T02:26:31.432Z,51.50
2023-05-18T02:28:33.239Z,51.50
2023-05-18T02:30:35.075Z,51.40
2023-05-18T02:32:36.895Z,51.40
2023-05-18T02:34:41.099Z,51.50
2023-05-18T02:36:43.094Z,51.50
2023-05-18T02:38:44.950Z,51.50
2023-05-18T02:40:46.810Z,51.50
2023-05-18T02:42:50.303Z,51.50
2023-05-18T02:44:52.102Z,51.50
2023-05-18T02:46:54.034Z,51.50
2023-05-18T02:48:55.864Z,51.50
2023-05-18T02:50:57.840Z,51.50
2023-05-18T02:52:59.953Z,51.50
2023-05-18T02:55:01.885Z,51.50
2023-05-18T02:57:22.549Z,51.50
2023-05-18T02:59:34.431Z,51.50
2023-05-18T03:01:36.491Z,51.50
2023-05-18T03:03:39.544Z,51.50
2023-05-18T03:05:41.521Z,51.50
2023-05-18T03:07:43.493Z,51.50
2023-05-18T03:09:47.009Z,51.40
2023-05-18T03:11:48.873Z,51.40
2023-05-18T03:13:50.658Z,51.40
2023-05-18T03:15:52.561Z,51.30
2023-05-18T03:17:55.191Z,51.30
2023-05-18T03:19:57.062Z,51.40
2023-05-18T03:21:58.879Z,51.40
2023-05-18T03:24:00.873Z,51.30
2023-05-18T03:26:02.665Z,51.30
2023-05-18T03:28:05.788Z,51.40
2023-05-18T03:30:08.229Z,51.30
2023-05-18T03:32:10.587Z,51.30
2023-05-18T03:34:13.115Z,51.30
2023-05-18T03:36:15.177Z,51.80
2023-05-18T03:38:18.001Z,51.20
2023-05-18T03:40:24.891Z,51.20
2023-05-18T03:42:26.813Z,51.20
2023-05-18T03:44:29.269Z,51.20
2023-05-18T03:46:31.350Z,51.20
2023-05-18T03:48:33.625Z,51.20
2023-05-18T03:50:35.423Z,51.20
2023-05-18T03:52:37.418Z,51.20
2023-05-18T03:54:41.702Z,51.20
2023-05-18T03:56:43.566Z,51.20
2023-05-18T03:58:45.383Z,51.20
2023-05-18T04:00:47.911Z,51.30
2023-05-18T04:02:49.804Z,51.30
2023-05-18T04:04:55.042Z,51.20
2023-05-18T04:06:56.805Z,51.30
2023-05-18T04:08:59.089Z,51.20
2023-05-18T04:11:00.825Z,51.20
2023-05-18T04:13:02.705Z,51.10
2023-05-18T04:15:04.694Z,51.20
2023-05-18T04:17:07.143Z,51.10
2023-05-18T04:19:09.047Z,51.10
2023-05-18T04:21:10.909Z,51.20
2023-05-18T04:23:13.031Z,51.20
2023-05-18T04:25:15.621Z,51.20
2023-05-18T04:27:17.392Z,51.20
2023-05-18T04:29:19.429Z,51.20
2023-05-18T04:31:21.264Z,51.20
2023-05-18T04:33:24.516Z,51.20
2023-05-18T04:35:27.492Z,51.20
2023-05-18T04:37:29.405Z,51.20
2023-05-18T04:39:34.517Z,51.20
2023-05-18T04:41:40.274Z,51.20
2023-05-18T04:43:42.091Z,51.20
2023-05-18T04:45:44.360Z,51.20
2023-05-18T04:47:47.276Z,51.10
2023-05-18T04:49:50.718Z,51.10
2023-05-18T04:51:53.341Z,51.10
2023-05-18T04:53:55.170Z,51.10
2023-05-18T04:55:57.020Z,51.10
2023-05-18T04:57:58.858Z,51.10
2023-05-18T05:00:00.968Z,51.10
2023-05-18T05:02:03.529Z,51.10
2023-05-18T05:04:05.333Z,51.10
2023-05-18T05:06:07.300Z,51.10
2023-05-18T05:08:10.290Z,51.10
2023-05-18T05:10:12.170Z,51.10
2023-05-18T05:12:14.460Z,51.00
2023-05-18T05:14:16.347Z,51.00
2023-05-18T05:16:18.178Z,51.10
2023-05-18T05:18:20.095Z,51.10
2023-05-18T05:20:22.034Z,51.10
2023-05-18T05:22:23.936Z,51.00
2023-05-18T05:24:26.517Z,51.00
2023-05-18T05:26:28.366Z,51.00
2023-05-18T05:28:31.393Z,51.00
2023-05-18T05:30:33.290Z,51.00
2023-05-18T05:32:35.124Z,51.00
2023-05-18T05:34:37.185Z,51.00
2023-05-18T05:36:40.098Z,51.00
2023-05-18T05:38:41.975Z,51.20
2023-05-18T05:40:43.756Z,51.20
2023-05-18T05:42:45.711Z,51.20
2023-05-18T05:44:48.063Z,51.30
2023-05-18T05:46:49.961Z,51.20
2023-05-18T05:48:51.862Z,51.30
2023-05-18T05:50:53.826Z,51.20
2023-05-18T05:52:55.653Z,51.20
2023-05-18T05:54:59.367Z,51.30
2023-05-18T05:57:02.156Z,51.50
2023-05-18T05:59:04.026Z,51.60
2023-05-18T06:01:05.912Z,51.60
2023-05-18T06:03:07.861Z,51.50
2023-05-18T06:05:12.228Z,51.60
2023-05-18T06:07:14.037Z,51.60
2023-05-18T06:09:16.312Z,51.50
2023-05-18T06:11:18.339Z,51.40
2023-05-18T06:13:20.126Z,51.50
2023-05-18T06:15:27.100Z,51.50
2023-05-18T06:17:28.919Z,51.40
2023-05-18T06:19:30.853Z,51.40
2023-05-18T06:21:32.684Z,51.50
2023-05-18T06:23:35.793Z,51.50
2023-05-18T06:25:45.616Z,51.40
2023-05-18T06:28:16.671Z,51.40
2023-05-18T06:30:22.519Z,51.40
2023-05-18T06:32:36.246Z,51.40
2023-05-18T06:34:38.258Z,51.40
2023-05-18T06:36:40.633Z,51.40
2023-05-18T06:38:42.428Z,51.50
2023-05-18T06:40:44.252Z,51.40
2023-05-18T06:42:46.071Z,51.40
2023-05-18T06:44:59.634Z,51.30
2023-05-18T06:47:19.986Z,51.40
2023-05-18T06:49:22.489Z,51.30
2023-05-18T06:51:24.322Z,51.30
2023-05-18T06:53:26.164Z,51.30
2023-05-18T06:55:28.227Z,51.30
2023-05-18T06:57:30.092Z,51.30
2023-05-18T06:59:32.456Z,51.30
2023-05-18T07:01:34.219Z,51.30
2023-05-18T07:03:38.340Z,51.40
2023-05-18T07:05:40.164Z,51.40
2023-05-18T07:07:42.035Z,51.30
2023-05-18T07:09:43.829Z,51.40
2023-05-18T07:11:45.654Z,51.40
2023-05-18T07:13:47.421Z,51.40
2023-05-18T07:15:49.330Z,52.00
2023-05-18T07:17:51.133Z,51.40
2023-05-18T07:19:52.980Z,51.30
2023-05-18T07:21:54.738Z,52.00
2023-05-18T07:23:56.601Z,51.40
2023-05-18T07:25:58.354Z,51.30
2023-05-18T07:28:00.340Z,51.30
2023-05-18T07:30:02.139Z,51.30
2023-05-18T07:32:04.158Z,51.30
2023-05-18T07:34:05.965Z,51.40
2023-05-18T07:36:07.995Z,51.40
2023-05-18T07:38:09.735Z,51.30
2023-05-18T07:40:11.850Z,51.40
2023-05-18T07:42:13.626Z,51.40
2023-05-18T07:44:15.650Z,51.50
2023-05-18T07:46:17.535Z,51.50
2023-05-18T07:48:19.469Z,51.50
2023-05-18T07:50:21.230Z,51.40
2023-05-18T07:52:23.057Z,51.40
2023-05-18T07:54:25.309Z,51.40
2023-05-18T07:56:27.154Z,51.40
2023-05-18T07:58:28.921Z,51.40
2023-05-18T08:00:31.132Z,51.40
2023-05-18T08:02:33.986Z,51.40
2023-05-18T08:04:36.054Z,51.40
2023-05-18T08:06:37.838Z,51.40
2023-05-18T08:08:39.641Z,51.50
2023-05-18T08:10:41.942Z,51.40
2023-05-18T08:12:43.818Z,51.40
2023-05-18T08:14:45.564Z,51.50
2023-05-18T08:16:47.476Z,51.40
2023-05-18T08:18:49.321Z,51.40
2023-05-18T08:20:51.163Z,51.40
2023-05-18T08:22:52.941Z,51.50
2023-05-18T08:24:54.760Z,51.40
2023-05-18T08:26:56.496Z,51.40
2023-05-18T08:28:58.329Z,51.40
2023-05-18T08:31:00.126Z,51.40
2023-05-18T08:33:02.268Z,51.40
2023-05-18T08:35:07.761Z,51.30
2023-05-18T08:37:09.572Z,51.40
2023-05-18T08:39:12.018Z,51.40
2023-05-18T08:41:20.416Z,52.00
2023-05-18T08:43:22.594Z,51.70
2023-05-18T08:45:30.487Z,51.40
2023-05-18T08:47:33.231Z,51.40
2023-05-18T08:49:35.458Z,51.30
2023-05-18T08:51:37.546Z,51.30
2023-05-18T08:53:39.411Z,51.30
2023-05-18T08:55:42.227Z,51.30
2023-05-18T08:57:45.888Z,51.30
2023-05-18T08:59:48.686Z,51.30
2023-05-18T09:01:51.227Z,51.30
2023-05-18T09:03:53.032Z,51.30
2023-05-18T09:05:55.800Z,51.30
2023-05-18T09:07:57.668Z,51.30
2023-05-18T09:10:00.207Z,51.30
2023-05-18T09:12:01.964Z,51.30
2023-05-18T09:14:03.805Z,51.20
2023-05-18T09:16:05.773Z,51.30
2023-05-18T09:18:07.668Z,51.30
2023-05-18T09:20:09.655Z,51.40
2023-05-18T09:22:11.847Z,51.50
2023-05-18T09:24:13.614Z,51.50
2023-05-18T09:26:15.466Z,51.50
2023-05-18T09:28:27.650Z,51.40
2023-05-18T09:30:29.460Z,51.40
2023-05-18T09:32:34.351Z,51.30
2023-05-18T09:34:39.638Z,51.40
2023-05-18T09:36:41.466Z,51.30
2023-05-18T09:38:44.646Z,51.30
2023-05-18T09:40:46.404Z,51.30
2023-05-18T09:42:48.189Z,51.30
2023-05-18T09:44:49.950Z,51.30
2023-05-18T09:46:55.476Z,51.30
2023-05-18T09:48:57.283Z,51.30
2023-05-18T09:50:59.694Z,51.30
2023-05-18T09:53:01.581Z,51.30
2023-05-18T09:55:05.014Z,51.30
2023-05-18T09:57:10.954Z,51.30
2023-05-18T09:59:14.330Z,51.30
2023-05-18T10:01:19.290Z,51.30
2023-05-18T10:03:21.861Z,51.40
2023-05-18T10:05:23.641Z,51.40
2023-05-18T10:07:25.450Z,51.40
2023-05-18T10:09:27.328Z,51.40
2023-05-18T10:11:31.735Z,51.40
2023-05-18T10:13:34.020Z,51.40
2023-05-18T10:15:35.998Z,51.40
2023-05-18T10:17:38.995Z,51.40
2023-05-18T10:19:41.776Z,51.40
2023-05-18T10:21:44.118Z,51.40
2023-05-18T10:23:48.067Z,51.30
2023-05-18T10:25:50.580Z,51.30
2023-05-18T10:27:56.326Z,51.30
2023-05-18T10:29:58.461Z,51.40
2023-05-18T10:32:02.964Z,52.00
2023-05-18T10:34:07.964Z,51.30
2023-05-18T10:36:10.445Z,51.30
2023-05-18T10:38:12.542Z,51.30
2023-05-18T10:40:14.529Z,51.90
2023-05-18T10:42:17.298Z,51.30
2023-05-18T10:44:19.194Z,51.30
2023-05-18T10:46:21.598Z,51.30
2023-05-18T10:48:24.075Z,51.30
2023-05-18T10:50:26.203Z,51.40
2023-05-18T10:52:28.669Z,51.40
2023-05-18T10:54:30.496Z,51.40
2023-05-18T10:56:32.507Z,51.40
2023-05-18T10:58:35.508Z,51.40
2023-05-18T11:00:37.945Z,51.40
2023-05-18T11:02:40.659Z,51.40
2023-05-18T11:04:42.778Z,51.40
2023-05-18T11:06:53.595Z,51.50
2023-05-18T11:08:55.413Z,51.60
2023-05-18T11:11:01.399Z,51.60
2023-05-18T11:13:03.415Z,51.60
2023-05-18T11:15:05.488Z,51.60
2023-05-18T11:17:22.698Z,51.60
2023-05-18T11:19:25.162Z,51.60
2023-05-18T11:21:30.049Z,51.60
2023-05-18T11:23:32.223Z,51.60
2023-05-18T11:25:34.018Z,51.70
2023-05-18T11:27:35.807Z,51.60
2023-05-18T11:29:40.710Z,51.70
2023-05-18T11:31:46.397Z,51.70
2023-05-18T11:33:48.281Z,51.70
2023-05-18T11:36:03.698Z,51.70
2023-05-18T11:38:08.677Z,51.70
2023-05-18T11:40:11.738Z,51.70
2023-05-18T11:42:13.747Z,51.70
2023-05-18T11:44:16.331Z,51.70
2023-05-18T11:46:18.335Z,51.70
2023-05-18T11:48:23.916Z,51.70
2023-05-18T11:50:25.853Z,51.80
2023-05-18T11:52:27.720Z,51.70
2023-05-18T11:54:33.518Z,51.70
2023-05-18T11:56:35.302Z,51.70
2023-05-18T11:58:37.107Z,51.80
2023-05-18T12:00:38.986Z,51.70
2023-05-18T12:02:44.612Z,51.70
2023-05-18T12:04:47.462Z,51.70
2023-05-18T12:06:49.421Z,51.70
2023-05-18T12:08:51.259Z,51.70
2023-05-18T12:10:53.249Z,51.70
2023-05-18T12:12:55.120Z,52.30
2023-05-18T12:14:58.410Z,51.60
2023-05-18T12:17:01.325Z,51.60
2023-05-18T12:19:03.330Z,51.60
2023-05-18T12:21:05.207Z,51.60
2023-05-18T12:23:07.102Z,51.60
2023-05-18T12:25:09.339Z,51.60
2023-05-18T12:27:11.805Z,51.60
2023-05-18T12:29:13.864Z,51.60
2023-05-18T12:31:15.754Z,51.60
2023-05-18T12:33:17.620Z,51.60
2023-05-18T12:35:23.085Z,51.50
2023-05-18T12:37:33.756Z,51.50
2023-05-18T12:39:36.756Z,51.50
2023-05-18T12:41:39.857Z,51.50
2023-05-18T12:43:41.673Z,52.10
2023-05-18T12:45:44.226Z,51.50
2023-05-18T12:47:46.068Z,51.50
2023-05-18T12:49:48.985Z,51.50
2023-05-18T12:51:54.871Z,51.50
2023-05-18T12:53:56.661Z,51.50
2023-05-18T12:55:58.817Z,51.50
2023-05-18T12:58:01.394Z,51.50
2023-05-18T13:00:03.298Z,51.40
2023-05-18T13:02:05.229Z,51.50
2023-05-18T13:04:10.550Z,51.50
2023-05-18T13:06:12.474Z,51.50
2023-05-18T13:08:14.977Z,51.50
2023-05-18T13:10:17.332Z,51.40
2023-05-18T13:12:19.149Z,51.40
2023-05-18T13:14:21.328Z,51.50
2023-05-18T13:16:23.212Z,51.50
2023-05-18T13:18:25.502Z,51.50
2023-05-18T13:20:36.296Z,51.50
2023-05-18T13:22:38.601Z,51.50
2023-05-18T13:24:40.402Z,51.40
2023-05-18T13:26:42.172Z,51.40
2023-05-18T13:28:44.019Z,51.40
2023-05-18T13:30:46.116Z,51.40
2023-05-18T13:32:48.098Z,51.40
2023-05-18T13:34:49.872Z,51.30
2023-05-18T13:36:51.730Z,51.40
2023-05-18T13:38:53.519Z,51.40
2023-05-18T13:40:55.353Z,51.30
2023-05-18T13:42:57.171Z,51.30
2023-05-18T13:44:59.060Z,51.30
2023-05-18T13:47:00.813Z,51.30
2023-05-18T13:49:02.614Z,51.30
2023-05-18T13:51:04.479Z,51.30
2023-05-18T13:53:06.410Z,51.30
2023-05-18T13:55:09.972Z,51.10
2023-05-18T13:57:12.477Z,51.10
2023-05-18T13:59:14.353Z,51.10
2023-05-18T14:01:16.190Z,51.10
2023-05-18T14:03:18.261Z,51.10
2023-05-18T14:05:20.227Z,51.10
2023-05-18T14:07:22.091Z,51.10
2023-05-18T14:09:24.535Z,51.10
2023-05-18T14:11:26.289Z,51.10
2023-05-18T14:13:28.094Z,51.00
2023-05-18T14:15:29.891Z,51.00
2023-05-18T14:17:31.930Z,51.00
2023-05-18T14:19:33.701Z,51.00
2023-05-18T14:21:35.578Z,50.90
2023-05-18T14:23:37.370Z,51.00
2023-05-18T14:25:39.207Z,50.90
2023-05-18T14:27:41.001Z,50.90
2023-05-18T14:29:42.921Z,50.90
2023-05-18T14:31:44.695Z,50.90
2023-05-18T14:33:46.589Z,50.90
2023-05-18T14:35:48.338Z,50.80
2023-05-18T14:37:50.154Z,50.80
2023-05-18T14:39:51.944Z,50.70
2023-05-18T14:41:53.756Z,50.80
2023-05-18T14:43:55.502Z,50.80
2023-05-18T14:46:08.266Z,50.80
2023-05-18T14:48:10.872Z,50.90
2023-05-18T14:50:12.763Z,50.90
2023-05-18T14:52:14.561Z,50.90
2023-05-18T14:54:16.432Z,50.90
2023-05-18T14:56:18.195Z,51.00
2023-05-18T14:58:20.023Z,50.90
2023-05-18T15:00:21.871Z,51.00
2023-05-18T15:02:23.805Z,51.00
2023-05-18T15:04:25.626Z,51.00
2023-05-18T15:06:28.085Z,51.00
2023-05-18T15:08:29.829Z,51.00
2023-05-18T15:10:31.998Z,51.00
2023-05-18T15:12:33.984Z,51.00
2023-05-18T15:14:35.860Z,51.00
2023-05-18T15:16:37.869Z,51.00
2023-05-18T15:18:39.797Z,51.00
2023-05-18T15:20:42.340Z,51.00
2023-05-18T15:22:44.195Z,51.00
2023-05-18T15:24:45.946Z,51.00
2023-05-18T15:26:47.750Z,51.10
2023-05-18T15:28:49.522Z,51.10
2023-05-18T15:30:51.498Z,51.10
2023-05-18T15:32:53.314Z,51.10
2023-05-18T15:34:55.167Z,51.10
2023-05-18T15:36:56.926Z,51.10
2023-05-18T15:38:58.776Z,51.10
2023-05-18T15:41:00.555Z,51.10
2023-05-18T15:43:02.384Z,51.10
2023-05-18T15:45:04.295Z,51.10
2023-05-18T15:47:06.178Z,51.10
2023-05-18T15:49:07.932Z,51.10
2023-05-18T15:51:09.726Z,51.10
2023-05-18T15:53:11.582Z,51.10
2023-05-18T15:55:13.499Z,51.20
2023-05-18T15:57:15.376Z,51.20
2023-05-18T15:59:17.264Z,51.10
2023-05-18T16:03:45.994Z,51.10
2023-05-18T16:05:48.114Z,51.00
2023-05-18T16:07:49.884Z,51.10
2023-05-18T16:09:51.700Z,51.10
2023-05-18T16:11:53.492Z,51.10
2023-05-18T16:13:56.877Z,51.10
2023-05-18T16:15:59.026Z,51.10
2023-05-18T16:18:00.933Z,51.10
2023-05-18T16:20:03.952Z,51.10
2023-05-18T16:22:05.998Z,51.10
2023-05-18T16:24:07.931Z,51.20
2023-05-18T16:26:10.147Z,51.20
2023-05-18T16:28:11.913Z,51.20
2023-05-18T16:30:13.858Z,51.20
2023-05-18T16:32:15.614Z,51.20
2023-05-18T16:34:17.400Z,51.20
2023-05-18T16:36:19.176Z,51.20
2023-05-18T16:38:21.005Z,51.20
2023-05-18T16:40:22.793Z,51.30
2023-05-18T16:42:24.642Z,51.30
2023-05-18T16:44:26.401Z,51.30
2023-05-18T16:46:28.549Z,51.20
2023-05-18T16:48:31.546Z,51.30
2023-05-18T16:50:33.484Z,51.40
2023-05-18T16:52:35.467Z,51.40
2023-05-18T16:54:37.321Z,51.40
2023-05-18T16:56:39.085Z,51.40
2023-05-18T16:58:40.904Z,51.40
2023-05-18T17:00:42.693Z,51.40
2023-05-18T17:02:44.868Z,51.40
2023-05-18T17:04:46.835Z,51.40
2023-05-18T17:06:48.693Z,51.40
2023-05-18T17:08:50.436Z,51.40
2023-05-18T17:10:52.230Z,51.50
2023-05-18T17:12:54.029Z,51.50
2023-05-18T17:14:55.849Z,51.50
2023-05-18T17:16:57.657Z,51.50
2023-05-18T17:18:59.623Z,51.50
2023-05-18T17:21:01.426Z,51.50
2023-05-18T17:23:03.259Z,51.50
2023-05-18T17:25:05.341Z,51.50
2023-05-18T17:27:07.202Z,51.50
2023-05-18T17:29:08.954Z,51.50
2023-05-18T17:31:10.909Z,51.40
2023-05-18T17:33:12.719Z,51.50
2023-05-18T17:35:14.682Z,51.50
2023-05-18T17:37:16.554Z,51.50
2023-05-18T17:39:18.404Z,51.40
2023-05-18T17:41:20.146Z,51.40
2023-05-18T17:43:22.019Z,51.50
2023-05-18T17:45:23.792Z,51.40
2023-05-18T17:47:25.695Z,51.50
2023-05-18T17:49:27.577Z,51.40
2023-05-18T17:51:29.396Z,51.40
2023-05-18T17:53:31.211Z,51.40
2023-05-18T17:55:33.105Z,51.40
2023-05-18T17:57:34.897Z,51.40
2023-05-18T17:59:37.321Z,51.50
2023-05-18T18:01:39.510Z,51.50
2023-05-18T18:03:41.450Z,51.40
2023-05-18T18:05:43.225Z,51.40
2023-05-18T18:07:45.076Z,51.40
2023-05-18T18:09:46.843Z,51.40
2023-05-18T18:11:48.858Z,51.40
2023-05-18T18:13:51.107Z,51.40
2023-05-18T18:15:53.129Z,51.40
2023-05-18T18:17:55.170Z,51.30
2023-05-18T18:19:57.138Z,51.40
2023-05-18T18:21:58.905Z,51.40
2023-05-18T18:24:00.735Z,51.40
2023-05-18T18:26:02.786Z,51.40
2023-05-18T18:28:04.645Z,51.50
2023-05-18T18:30:06.853Z,51.40
2023-05-18T18:32:08.754Z,51.50
2023-05-18T18:34:10.533Z,51.50
2023-05-18T18:36:12.352Z,51.50
2023-05-18T18:38:14.217Z,51.50
2023-05-18T18:40:16.153Z,51.40
2023-05-18T18:42:21.072Z,51.40
2023-05-18T18:44:23.461Z,51.50
2023-05-18T18:46:25.269Z,51.50
2023-05-18T18:48:27.145Z,51.50
2023-05-18T18:50:29.064Z,51.50
2023-05-18T18:52:31.009Z,51.50
2023-05-18T18:54:32.764Z,51.50
2023-05-18T18:56:34.617Z,51.50
2023-05-18T18:58:36.355Z,51.50
2023-05-18T19:00:38.200Z,51.50
2023-05-18T19:02:40.817Z,51.60
2023-05-18T19:04:42.959Z,51.60
2023-05-18T19:06:45.510Z,51.60
2023-05-18T19:08:47.961Z,51.60
2023-05-18T19:10:49.985Z,51.60
2023-05-18T19:12:51.798Z,51.60
2023-05-18T19:14:53.608Z,51.60
2023-05-18T19:16:55.745Z,51.60
2023-05-18T19:18:57.593Z,51.60
2023-05-18T19:20:59.443Z,51.60
2023-05-18T19:23:01.182Z,51.70
2023-05-18T19:25:03.081Z,51.70
2023-05-18T19:27:04.891Z,51.70
2023-05-18T19:29:06.727Z,52.20
2023-05-18T19:31:08.539Z,51.70
2023-05-18T19:33:10.475Z,51.60
2023-05-18T19:35:12.373Z,51.60
2023-05-18T19:37:15.348Z,51.60
2023-05-18T19:39:17.995Z,51.60
2023-05-18T19:41:20.896Z,51.60
2023-05-18T19:43:23.996Z,51.60
2023-05-18T19:45:26.009Z,51.70
2023-05-18T19:47:28.266Z,51.70
2023-05-18T19:49:30.139Z,51.70
2023-05-18T19:51:32.310Z,51.70
2023-05-18T19:53:34.166Z,51.70
2023-05-18T19:55:35.916Z,51.70
2023-05-18T19:57:37.784Z,51.70
2023-05-18T19:59:39.555Z,51.70
2023-05-18T20:01:41.394Z,51.80
2023-05-18T20:03:43.740Z,51.70
2023-05-18T20:05:46.053Z,51.80
2023-05-18T20:07:47.817Z,51.80
2023-05-18T20:09:49.693Z,51.80
2023-05-18T20:11:51.514Z,51.80
2023-05-18T20:13:53.353Z,51.80
2023-05-18T20:15:55.126Z,51.80
2023-05-18T20:17:56.999Z,51.80
2023-05-18T20:19:58.776Z,51.80
2023-05-18T20:22:00.717Z,51.80
2023-05-18T20:24:02.644Z,51.80
2023-05-18T20:26:04.476Z,51.80
2023-05-18T20:28:06.251Z,51.80
2023-05-18T20:30:08.373Z,51.90
2023-05-18T20:32:10.144Z,51.80
2023-05-18T20:34:11.978Z,51.90
2023-05-18T20:36:13.738Z,51.80
2023-05-18T20:38:15.582Z,51.80
2023-05-18T20:40:17.421Z,51.80
2023-05-18T20:42:22.165Z,51.80
2023-05-18T20:44:23.991Z,51.80
2023-05-18T20:46:25.877Z,51.80
2023-05-18T20:48:27.642Z,51.90
2023-05-18T20:50:29.583Z,51.80
2023-05-18T20:52:31.497Z,51.80
2023-05-18T20:54:33.293Z,51.80
2023-05-18T20:56:35.983Z,51.80
2023-05-18T20:58:37.876Z,51.90
2023-05-18T21:00:39.659Z,51.90
2023-05-18T21:02:41.841Z,51.90
2023-05-18T21:04:43.712Z,51.90
2023-05-18T21:06:45.537Z,51.90
2023-05-18T21:08:47.335Z,51.90
2023-05-18T21:10:49.180Z,51.90
2023-05-18T21:12:50.931Z,52.00
2023-05-18T21:14:52.748Z,51.90
2023-05-18T21:16:54.525Z,51.90
2023-05-18T21:18:56.386Z,52.00
2023-05-18T21:20:58.167Z,52.00
2023-05-18T21:23:00.006Z,52.00
2023-05-18T21:25:01.923Z,52.00
2023-05-18T21:27:04.449Z,52.00
2023-05-18T21:29:06.258Z,52.00
2023-05-18T21:31:08.203Z,51.90
2023-05-18T21:33:10.113Z,51.90
2023-05-18T21:35:12.013Z,51.90
2023-05-18T21:37:14.040Z,51.90
2023-05-18T21:39:15.866Z,51.90
2023-05-18T21:41:17.650Z,51.90
2023-05-18T21:43:19.479Z,52.00
2023-05-18T21:45:21.242Z,52.00
2023-05-18T21:47:23.155Z,52.60
2023-05-18T21:49:24.938Z,51.90
2023-05-18T21:51:26.829Z,52.00
2023-05-18T21:53:28.629Z,52.00
2023-05-18T21:55:31.422Z,52.00
2023-05-18T21:57:33.368Z,52.00
2023-05-18T21:59:35.207Z,52.00
2023-05-18T22:01:37.197Z,52.00
2023-05-18T22:03:39.087Z,52.00
2023-05-18T22:05:40.864Z,52.00
2023-05-18T22:07:42.696Z,52.10
2023-05-18T22:09:44.529Z,52.10
2023-05-18T22:11:46.402Z,52.10
2023-05-18T22:13:48.135Z,52.10
2023-05-18T22:15:49.952Z,52.10
2023-05-18T22:17:51.779Z,52.10
2023-05-18T22:19:53.637Z,52.10
2023-05-18T22:21:55.426Z,52.10
2023-05-18T22:23:57.283Z,52.10
2023-05-18T22:25:59.062Z,52.10
2023-05-18T22:28:01.414Z,52.10
2023-05-18T22:30:03.732Z,52.10
2023-05-18T22:32:05.909Z,52.10
2023-05-18T22:34:07.802Z,52.10
2023-05-18T22:36:09.686Z,52.00
2023-05-18T22:38:11.788Z,52.10
2023-05-18T22:40:13.694Z,52.10
2023-05-18T22:42:15.489Z,52.10
2023-05-18T22:44:17.338Z,52.10
2023-05-18T22:46:19.365Z,52.10
2023-05-18T22:48:21.342Z,52.10
2023-05-18T22:50:23.148Z,52.10
2023-05-18T22:52:25.002Z,52.10
2023-05-18T22:54:26.810Z,52.10
2023-05-18T22:56:28.682Z,52.10
2023-05-18T22:58:30.447Z,52.10
2023-05-18T23:00:32.439Z,52.10
2023-05-18T23:02:34.637Z,52.20
2023-05-18T23:04:36.528Z,52.20
2023-05-18T23:06:38.349Z,52.10
2023-05-18T23:08:40.209Z,52.20
2023-05-18T23:10:41.994Z,52.80
2023-05-18T23:12:43.867Z,52.20
2023-05-18T23:14:45.904Z,52.20
2023-05-18T23:16:48.159Z,52.20
2023-05-18T23:18:50.003Z,52.20
2023-05-18T23:20:51.979Z,52.20
2023-05-18T23:22:53.743Z,52.20
2023-05-18T23:24:55.619Z,52.20
2023-05-18T23:27:00.468Z,52.20
2023-05-18T23:29:02.307Z,52.20
2023-05-18T23:31:04.084Z,52.20
2023-05-18T23:33:06.293Z,52.20
2023-05-18T23:35:08.507Z,52.20
2023-05-18T23:37:10.873Z,52.20
2023-05-18T23:39:12.825Z,52.20
2023-05-18T23:41:15.318Z,52.20
2023-05-18T23:43:17.246Z,52.20
2023-05-18T23:45:19.258Z,52.20
2023-05-18T23:47:21.094Z,52.20
2023-05-18T23:49:23.065Z,52.20
2023-05-18T23:51:24.930Z,52.20
2023-05-18T23:53:27.726Z,52.20
2023-05-18T23:55:29.674Z,52.20
2023-05-18T23:57:31.661Z,52.20
2023-05-18T23:59:33.556Z,52.20
